sensor_id;sensor_type;location;lat;lon;timestamp;P1;durP1;ratioP1;P2;durP2;ratioP2
12369;SDS011;6249;52.128;9.986;2022-12-18T00:03:14;21.30;;;10.27;;
12369;SDS011;6249;52.128;9.986;2022-12-18T00:06:37;25.37;;;9.97;;
12369;SDS011;6249;52.128;9.986;2022-12-18T00:09:58;24.47;;;10.70;;
12369;SDS011;6249;52.128;9.986;2022-12-18T00:13:18;33.83;;;10.10;;
12369;SDS011;6249;52.128;9.986;2022-12-18T00:16:39;23.57;;;11.00;;
12369;SDS011;6249;52.128;9.986;2022-12-18T00:20:00;21.17;;;9.80;;
12369;SDS011;6249;52.128;9.986;2022-12-18T00:23:23;23.40;;;9.97;;
12369;SDS011;6249;52.128;9.986;2022-12-18T00:26:44;22.77;;;10.20;;
12369;SDS011;6249;52.128;9.986;2022-12-18T00:30:04;24.70;;;11.40;;
12369;SDS011;6249;52.128;9.986;2022-12-18T00:33:28;19.23;;;9.40;;
12369;SDS011;6249;52.128;9.986;2022-12-18T00:36:48;20.07;;;9.40;;
12369;SDS011;6249;52.128;9.986;2022-12-18T00:40:09;20.23;;;9.27;;
12369;SDS011;6249;52.128;9.986;2022-12-18T00:43:38;22.23;;;9.43;;
12369;SDS011;6249;52.128;9.986;2022-12-18T00:46:59;29.60;;;10.40;;
12369;SDS011;6249;52.128;9.986;2022-12-18T00:50:20;21.80;;;9.87;;
12369;SDS011;6249;52.128;9.986;2022-12-18T00:53:42;21.33;;;9.87;;
12369;SDS011;6249;52.128;9.986;2022-12-18T00:57:02;20.13;;;8.77;;
12369;SDS011;6249;52.128;9.986;2022-12-18T01:00:23;22.20;;;10.30;;
12369;SDS011;6249;52.128;9.986;2022-12-18T01:03:43;19.43;;;9.67;;
12369;SDS011;6249;52.128;9.986;2022-12-18T01:07:06;20.93;;;10.30;;
12369;SDS011;6249;52.128;9.986;2022-12-18T01:10:32;23.07;;;10.33;;
12369;SDS011;6249;52.128;9.986;2022-12-18T01:13:53;25.43;;;11.10;;
12369;SDS011;6249;52.128;9.986;2022-12-18T01:17:14;25.53;;;11.30;;
12369;SDS011;6249;52.128;9.986;2022-12-18T01:20:35;27.43;;;11.07;;
12369;SDS011;6249;52.128;9.986;2022-12-18T01:23:57;27.30;;;11.80;;
12369;SDS011;6249;52.128;9.986;2022-12-18T01:27:18;20.07;;;11.30;;
12369;SDS011;6249;52.128;9.986;2022-12-18T01:30:38;25.03;;;10.00;;
12369;SDS011;6249;52.128;9.986;2022-12-18T01:34:03;27.10;;;11.70;;
12369;SDS011;6249;52.128;9.986;2022-12-18T01:37:24;23.67;;;10.33;;
12369;SDS011;6249;52.128;9.986;2022-12-18T01:40:45;29.07;;;11.20;;
12369;SDS011;6249;52.128;9.986;2022-12-18T01:44:46;24.17;;;11.50;;
12369;SDS011;6249;52.128;9.986;2022-12-18T01:48:05;23.63;;;10.80;;
12369;SDS011;6249;52.128;9.986;2022-12-18T01:51:29;22.60;;;10.20;;
12369;SDS011;6249;52.128;9.986;2022-12-18T01:54:50;27.83;;;11.63;;
12369;SDS011;6249;52.128;9.986;2022-12-18T01:58:15;21.53;;;10.63;;
12369;SDS011;6249;52.128;9.986;2022-12-18T02:01:39;21.80;;;10.60;;
12369;SDS011;6249;52.128;9.986;2022-12-18T02:05:00;26.00;;;10.97;;
12369;SDS011;6249;52.128;9.986;2022-12-18T02:08:24;27.43;;;10.90;;
12369;SDS011;6249;52.128;9.986;2022-12-18T02:15:39;24.70;;;9.73;;
12369;SDS011;6249;52.128;9.986;2022-12-18T02:19:14;26.53;;;11.40;;
12369;SDS011;6249;52.128;9.986;2022-12-18T02:22:53;20.00;;;10.13;;
12369;SDS011;6249;52.128;9.986;2022-12-18T02:26:33;28.70;;;11.20;;
12369;SDS011;6249;52.128;9.986;2022-12-18T02:30:00;28.97;;;9.90;;
12369;SDS011;6249;52.128;9.986;2022-12-18T02:33:25;24.50;;;8.90;;
12369;SDS011;6249;52.128;9.986;2022-12-18T02:36:47;18.00;;;8.80;;
12369;SDS011;6249;52.128;9.986;2022-12-18T02:40:14;22.30;;;9.30;;
12369;SDS011;6249;52.128;9.986;2022-12-18T02:43:37;17.83;;;8.13;;
12369;SDS011;6249;52.128;9.986;2022-12-18T02:46:57;20.30;;;8.87;;
12369;SDS011;6249;52.128;9.986;2022-12-18T02:54:04;16.07;;;8.77;;
12369;SDS011;6249;52.128;9.986;2022-12-18T03:04:29;25.00;;;9.80;;
12369;SDS011;6249;52.128;9.986;2022-12-18T03:07:58;19.80;;;8.83;;
12369;SDS011;6249;52.128;9.986;2022-12-18T03:11:25;17.60;;;8.10;;
12369;SDS011;6249;52.128;9.986;2022-12-18T03:18:48;19.30;;;9.60;;
12369;SDS011;6249;52.128;9.986;2022-12-18T03:22:12;20.20;;;8.90;;
12369;SDS011;6249;52.128;9.986;2022-12-18T03:25:37;25.13;;;9.63;;
12369;SDS011;6249;52.128;9.986;2022-12-18T03:29:06;23.80;;;9.50;;
12369;SDS011;6249;52.128;9.986;2022-12-18T03:32:36;17.97;;;9.37;;
12369;SDS011;6249;52.128;9.986;2022-12-18T03:36:11;20.10;;;9.20;;
12369;SDS011;6249;52.128;9.986;2022-12-18T03:39:32;16.97;;;8.27;;
12369;SDS011;6249;52.128;9.986;2022-12-18T03:42:57;19.80;;;8.80;;
12369;SDS011;6249;52.128;9.986;2022-12-18T03:50:44;27.13;;;8.73;;
12369;SDS011;6249;52.128;9.986;2022-12-18T03:54:25;19.87;;;8.83;;
12369;SDS011;6249;52.128;9.986;2022-12-18T03:57:47;19.27;;;7.87;;
12369;SDS011;6249;52.128;9.986;2022-12-18T04:01:10;19.90;;;7.27;;
12369;SDS011;6249;52.128;9.986;2022-12-18T04:04:37;14.23;;;7.27;;
12369;SDS011;6249;52.128;9.986;2022-12-18T04:08:02;22.83;;;7.70;;
12369;SDS011;6249;52.128;9.986;2022-12-18T04:11:26;18.73;;;7.50;;
12369;SDS011;6249;52.128;9.986;2022-12-18T04:14:49;18.07;;;7.20;;
12369;SDS011;6249;52.128;9.986;2022-12-18T04:18:10;17.10;;;8.30;;
12369;SDS011;6249;52.128;9.986;2022-12-18T04:21:33;19.77;;;7.63;;
12369;SDS011;6249;52.128;9.986;2022-12-18T04:24:53;16.67;;;7.30;;
12369;SDS011;6249;52.128;9.986;2022-12-18T04:28:14;17.53;;;6.40;;
12369;SDS011;6249;52.128;9.986;2022-12-18T04:31:34;17.70;;;7.60;;
12369;SDS011;6249;52.128;9.986;2022-12-18T04:34:57;15.30;;;6.73;;
12369;SDS011;6249;52.128;9.986;2022-12-18T04:38:20;10.40;;;5.67;;
12369;SDS011;6249;52.128;9.986;2022-12-18T04:41:43;19.37;;;7.10;;
12369;SDS011;6249;52.128;9.986;2022-12-18T04:45:06;13.20;;;6.00;;
12369;SDS011;6249;52.128;9.986;2022-12-18T04:48:30;17.40;;;6.10;;
12369;SDS011;6249;52.128;9.986;2022-12-18T04:51:50;16.20;;;6.00;;
12369;SDS011;6249;52.128;9.986;2022-12-18T04:55:11;14.67;;;5.83;;
12369;SDS011;6249;52.128;9.986;2022-12-18T04:58:32;12.90;;;6.10;;
12369;SDS011;6249;52.128;9.986;2022-12-18T05:01:52;15.57;;;5.70;;
12369;SDS011;6249;52.128;9.986;2022-12-18T05:05:13;13.63;;;6.33;;
12369;SDS011;6249;52.128;9.986;2022-12-18T05:08:38;12.03;;;5.50;;
12369;SDS011;6249;52.128;9.986;2022-12-18T05:11:59;14.00;;;6.10;;
12369;SDS011;6249;52.128;9.986;2022-12-18T05:15:22;15.10;;;6.37;;
12369;SDS011;6249;52.128;9.986;2022-12-18T05:18:46;23.20;;;6.00;;
12369;SDS011;6249;52.128;9.986;2022-12-18T05:22:09;17.20;;;5.90;;
12369;SDS011;6249;52.128;9.986;2022-12-18T05:25:31;40.73;;;14.90;;
12369;SDS011;6249;52.128;9.986;2022-12-18T05:28:52;22.23;;;9.03;;
12369;SDS011;6249;52.128;9.986;2022-12-18T05:32:12;21.17;;;7.70;;
12369;SDS011;6249;52.128;9.986;2022-12-18T05:35:33;21.37;;;8.30;;
12369;SDS011;6249;52.128;9.986;2022-12-18T05:38:53;13.60;;;6.30;;
12369;SDS011;6249;52.128;9.986;2022-12-18T05:42:14;49.50;;;18.33;;
12369;SDS011;6249;52.128;9.986;2022-12-18T05:45:38;37.90;;;15.27;;
12369;SDS011;6249;52.128;9.986;2022-12-18T05:49:01;36.67;;;12.70;;
12369;SDS011;6249;52.128;9.986;2022-12-18T05:52:24;30.93;;;12.13;;
12369;SDS011;6249;52.128;9.986;2022-12-18T05:55:45;35.97;;;15.10;;
12369;SDS011;6249;52.128;9.986;2022-12-18T05:59:06;30.67;;;12.63;;
12369;SDS011;6249;52.128;9.986;2022-12-18T06:02:26;16.93;;;8.37;;
12369;SDS011;6249;52.128;9.986;2022-12-18T06:05:47;13.33;;;6.50;;
12369;SDS011;6249;52.128;9.986;2022-12-18T06:09:12;13.93;;;5.87;;
12369;SDS011;6249;52.128;9.986;2022-12-18T06:12:33;19.03;;;6.10;;
12369;SDS011;6249;52.128;9.986;2022-12-18T06:15:53;15.30;;;6.00;;
12369;SDS011;6249;52.128;9.986;2022-12-18T06:19:16;14.60;;;6.50;;
12369;SDS011;6249;52.128;9.986;2022-12-18T06:22:39;14.70;;;6.03;;
12369;SDS011;6249;52.128;9.986;2022-12-18T06:26:03;12.77;;;5.63;;
12369;SDS011;6249;52.128;9.986;2022-12-18T06:29:29;10.50;;;5.17;;
12369;SDS011;6249;52.128;9.986;2022-12-18T06:32:50;14.90;;;6.33;;
12369;SDS011;6249;52.128;9.986;2022-12-18T06:36:13;14.50;;;6.63;;
12369;SDS011;6249;52.128;9.986;2022-12-18T06:39:34;16.50;;;6.40;;
12369;SDS011;6249;52.128;9.986;2022-12-18T06:42:54;14.33;;;4.70;;
12369;SDS011;6249;52.128;9.986;2022-12-18T06:46:15;14.57;;;5.73;;
12369;SDS011;6249;52.128;9.986;2022-12-18T06:49:40;11.53;;;4.80;;
12369;SDS011;6249;52.128;9.986;2022-12-18T06:53:03;12.40;;;4.60;;
12369;SDS011;6249;52.128;9.986;2022-12-18T06:56:26;13.30;;;5.30;;
12369;SDS011;6249;52.128;9.986;2022-12-18T06:59:47;12.63;;;5.50;;
12369;SDS011;6249;52.128;9.986;2022-12-18T07:03:10;9.00;;;4.70;;
12369;SDS011;6249;52.128;9.986;2022-12-18T07:06:33;11.83;;;5.50;;
12369;SDS011;6249;52.128;9.986;2022-12-18T07:09:56;13.17;;;5.93;;
12369;SDS011;6249;52.128;9.986;2022-12-18T07:13:19;20.37;;;6.70;;
12369;SDS011;6249;52.128;9.986;2022-12-18T07:16:39;13.20;;;5.50;;
12369;SDS011;6249;52.128;9.986;2022-12-18T07:20:00;12.77;;;4.80;;
12369;SDS011;6249;52.128;9.986;2022-12-18T07:23:21;19.20;;;5.50;;
12369;SDS011;6249;52.128;9.986;2022-12-18T07:26:44;12.00;;;5.37;;
12369;SDS011;6249;52.128;9.986;2022-12-18T07:30:09;17.07;;;6.23;;
12369;SDS011;6249;52.128;9.986;2022-12-18T07:33:30;10.80;;;5.20;;
12369;SDS011;6249;52.128;9.986;2022-12-18T07:36:53;11.50;;;5.33;;
12369;SDS011;6249;52.128;9.986;2022-12-18T07:40:16;16.97;;;6.00;;
12369;SDS011;6249;52.128;9.986;2022-12-18T07:43:39;19.33;;;6.50;;
12369;SDS011;6249;52.128;9.986;2022-12-18T07:47:03;10.40;;;4.67;;
12369;SDS011;6249;52.128;9.986;2022-12-18T07:50:24;11.30;;;5.70;;
12369;SDS011;6249;52.128;9.986;2022-12-18T07:53:44;14.73;;;6.33;;
12369;SDS011;6249;52.128;9.986;2022-12-18T07:57:06;12.93;;;5.70;;
12369;SDS011;6249;52.128;9.986;2022-12-18T08:00:27;15.63;;;5.63;;
12369;SDS011;6249;52.128;9.986;2022-12-18T08:03:47;11.90;;;5.80;;
12369;SDS011;6249;52.128;9.986;2022-12-18T08:07:10;14.83;;;5.03;;
12369;SDS011;6249;52.128;9.986;2022-12-18T08:10:31;12.37;;;4.70;;
12369;SDS011;6249;52.128;9.986;2022-12-18T08:13:51;19.23;;;6.10;;
12369;SDS011;6249;52.128;9.986;2022-12-18T08:17:14;13.57;;;4.97;;
12369;SDS011;6249;52.128;9.986;2022-12-18T08:20:37;12.77;;;5.40;;
12369;SDS011;6249;52.128;9.986;2022-12-18T08:24:00;12.13;;;4.70;;
12369;SDS011;6249;52.128;9.986;2022-12-18T08:27:24;9.97;;;4.90;;
12369;SDS011;6249;52.128;9.986;2022-12-18T08:30:44;9.47;;;4.20;;
12369;SDS011;6249;52.128;9.986;2022-12-18T08:34:11;13.23;;;4.20;;
12369;SDS011;6249;52.128;9.986;2022-12-18T08:37:31;9.50;;;4.53;;
12369;SDS011;6249;52.128;9.986;2022-12-18T08:40:58;10.20;;;4.20;;
12369;SDS011;6249;52.128;9.986;2022-12-18T08:44:20;9.57;;;4.20;;
12369;SDS011;6249;52.128;9.986;2022-12-18T08:47:59;9.67;;;4.03;;
12369;SDS011;6249;52.128;9.986;2022-12-18T08:51:19;21.63;;;8.77;;
12369;SDS011;6249;52.128;9.986;2022-12-18T08:54:41;9.03;;;4.23;;
12369;SDS011;6249;52.128;9.986;2022-12-18T08:58:01;9.33;;;4.53;;
12369;SDS011;6249;52.128;9.986;2022-12-18T09:01:22;9.83;;;4.27;;
12369;SDS011;6249;52.128;9.986;2022-12-18T09:04:46;9.27;;;4.30;;
12369;SDS011;6249;52.128;9.986;2022-12-18T09:08:07;10.20;;;3.70;;
12369;SDS011;6249;52.128;9.986;2022-12-18T09:11:30;9.57;;;4.27;;
12369;SDS011;6249;52.128;9.986;2022-12-18T09:14:52;12.97;;;4.50;;
12369;SDS011;6249;52.128;9.986;2022-12-18T09:18:16;10.00;;;4.20;;
12369;SDS011;6249;52.128;9.986;2022-12-18T09:21:38;8.50;;;3.60;;
12369;SDS011;6249;52.128;9.986;2022-12-18T09:24:59;7.93;;;3.53;;
12369;SDS011;6249;52.128;9.986;2022-12-18T09:28:21;8.43;;;3.20;;
12369;SDS011;6249;52.128;9.986;2022-12-18T09:31:44;9.10;;;3.30;;
12369;SDS011;6249;52.128;9.986;2022-12-18T09:35:05;9.67;;;3.27;;
12369;SDS011;6249;52.128;9.986;2022-12-18T09:38:26;7.23;;;3.43;;
12369;SDS011;6249;52.128;9.986;2022-12-18T09:45:16;9.30;;;3.57;;
12369;SDS011;6249;52.128;9.986;2022-12-18T09:48:38;8.93;;;4.43;;
12369;SDS011;6249;52.128;9.986;2022-12-18T09:52:09;9.33;;;4.23;;
12369;SDS011;6249;52.128;9.986;2022-12-18T09:55:47;7.33;;;3.63;;
12369;SDS011;6249;52.128;9.986;2022-12-18T09:59:20;16.53;;;4.67;;
12369;SDS011;6249;52.128;9.986;2022-12-18T10:02:49;6.70;;;3.70;;
12369;SDS011;6249;52.128;9.986;2022-12-18T10:09:44;8.83;;;2.60;;
12369;SDS011;6249;52.128;9.986;2022-12-18T10:13:29;8.73;;;3.07;;
12369;SDS011;6249;52.128;9.986;2022-12-18T10:20:33;6.00;;;2.70;;
12369;SDS011;6249;52.128;9.986;2022-12-18T10:27:57;7.10;;;2.50;;
12369;SDS011;6249;52.128;9.986;2022-12-18T10:31:32;14.23;;;2.33;;
12369;SDS011;6249;52.128;9.986;2022-12-18T10:34:55;4.73;;;2.20;;
12369;SDS011;6249;52.128;9.986;2022-12-18T10:41:39;5.40;;;2.50;;
12369;SDS011;6249;52.128;9.986;2022-12-18T10:45:33;8.13;;;3.30;;
12369;SDS011;6249;52.128;9.986;2022-12-18T10:48:52;6.83;;;2.93;;
12369;SDS011;6249;52.128;9.986;2022-12-18T10:52:15;7.07;;;3.20;;
12369;SDS011;6249;52.128;9.986;2022-12-18T10:55:39;7.37;;;3.40;;
12369;SDS011;6249;52.128;9.986;2022-12-18T10:59:06;7.27;;;3.23;;
12369;SDS011;6249;52.128;9.986;2022-12-18T11:02:37;7.03;;;2.90;;
12369;SDS011;6249;52.128;9.986;2022-12-18T11:06:02;6.07;;;2.80;;
12369;SDS011;6249;52.128;9.986;2022-12-18T11:09:26;5.97;;;3.03;;
12369;SDS011;6249;52.128;9.986;2022-12-18T11:12:50;9.13;;;3.03;;
12369;SDS011;6249;52.128;9.986;2022-12-18T11:16:17;10.10;;;3.20;;
12369;SDS011;6249;52.128;9.986;2022-12-18T11:19:41;10.93;;;3.30;;
12369;SDS011;6249;52.128;9.986;2022-12-18T11:23:05;18.53;;;7.30;;
12369;SDS011;6249;52.128;9.986;2022-12-18T11:26:33;5.73;;;2.63;;
12369;SDS011;6249;52.128;9.986;2022-12-18T11:30:09;7.03;;;2.90;;
12369;SDS011;6249;52.128;9.986;2022-12-18T11:37:36;9.47;;;2.80;;
12369;SDS011;6249;52.128;9.986;2022-12-18T11:44:31;8.03;;;2.90;;
12369;SDS011;6249;52.128;9.986;2022-12-18T11:48:16;6.17;;;2.90;;
12369;SDS011;6249;52.128;9.986;2022-12-18T11:51:58;6.50;;;3.17;;
12369;SDS011;6249;52.128;9.986;2022-12-18T11:59:00;7.73;;;3.20;;
12369;SDS011;6249;52.128;9.986;2022-12-18T12:02:56;7.27;;;3.00;;
12369;SDS011;6249;52.128;9.986;2022-12-18T12:06:58;7.50;;;3.07;;
12369;SDS011;6249;52.128;9.986;2022-12-18T12:11:00;7.17;;;3.27;;
12369;SDS011;6249;52.128;9.986;2022-12-18T12:18:36;8.33;;;3.70;;
12369;SDS011;6249;52.128;9.986;2022-12-18T12:22:18;9.47;;;4.00;;
12369;SDS011;6249;52.128;9.986;2022-12-18T12:25:59;7.10;;;3.80;;
12369;SDS011;6249;52.128;9.986;2022-12-18T12:33:12;9.57;;;4.30;;
12369;SDS011;6249;52.128;9.986;2022-12-18T12:40:45;10.17;;;5.07;;
12369;SDS011;6249;52.128;9.986;2022-12-18T12:44:53;6.47;;;3.70;;
12369;SDS011;6249;52.128;9.986;2022-12-18T12:48:24;9.70;;;4.20;;
12369;SDS011;6249;52.128;9.986;2022-12-18T12:51:56;6.90;;;3.70;;
12369;SDS011;6249;52.128;9.986;2022-12-18T12:55:24;8.87;;;4.47;;
12369;SDS011;6249;52.128;9.986;2022-12-18T13:02:47;7.93;;;3.83;;
12369;SDS011;6249;52.128;9.986;2022-12-18T13:06:54;7.37;;;3.30;;
12369;SDS011;6249;52.128;9.986;2022-12-18T13:13:53;7.50;;;4.17;;
12369;SDS011;6249;52.128;9.986;2022-12-18T13:28:11;10.73;;;3.80;;
12369;SDS011;6249;52.128;9.986;2022-12-18T13:38:37;12.60;;;5.33;;
12369;SDS011;6249;52.128;9.986;2022-12-18T13:45:40;16.03;;;4.80;;
12369;SDS011;6249;52.128;9.986;2022-12-18T13:49:16;10.70;;;4.57;;
12369;SDS011;6249;52.128;9.986;2022-12-18T13:52:45;8.80;;;5.23;;
12369;SDS011;6249;52.128;9.986;2022-12-18T13:56:10;11.20;;;5.85;;
12369;SDS011;6249;52.128;9.986;2022-12-18T13:59:40;12.00;;;3.97;;
12369;SDS011;6249;52.128;9.986;2022-12-18T14:03:15;14.67;;;5.20;;
12369;SDS011;6249;52.128;9.986;2022-12-18T14:06:44;12.53;;;4.67;;
12369;SDS011;6249;52.128;9.986;2022-12-18T14:10:11;10.03;;;4.40;;
12369;SDS011;6249;52.128;9.986;2022-12-18T14:13:38;13.50;;;5.83;;
12369;SDS011;6249;52.128;9.986;2022-12-18T14:17:08;14.70;;;5.73;;
12369;SDS011;6249;52.128;9.986;2022-12-18T14:20:33;15.57;;;8.00;;
12369;SDS011;6249;52.128;9.986;2022-12-18T14:27:29;10.03;;;4.60;;
12369;SDS011;6249;52.128;9.986;2022-12-18T14:30:49;7.17;;;3.67;;
12369;SDS011;6249;52.128;9.986;2022-12-18T14:34:14;8.20;;;3.63;;
12369;SDS011;6249;52.128;9.986;2022-12-18T14:37:41;7.70;;;3.00;;
12369;SDS011;6249;52.128;9.986;2022-12-18T14:41:03;9.97;;;4.23;;
12369;SDS011;6249;52.128;9.986;2022-12-18T14:44:25;14.93;;;4.87;;
12369;SDS011;6249;52.128;9.986;2022-12-18T14:47:46;17.43;;;6.77;;
12369;SDS011;6249;52.128;9.986;2022-12-18T14:51:13;13.23;;;7.10;;
12369;SDS011;6249;52.128;9.986;2022-12-18T14:54:39;16.00;;;9.47;;
12369;SDS011;6249;52.128;9.986;2022-12-18T14:58:00;28.50;;;14.87;;
12369;SDS011;6249;52.128;9.986;2022-12-18T15:08:47;15.87;;;4.93;;
12369;SDS011;6249;52.128;9.986;2022-12-18T15:12:28;11.97;;;5.43;;
12369;SDS011;6249;52.128;9.986;2022-12-18T15:15:55;17.03;;;8.37;;
12369;SDS011;6249;52.128;9.986;2022-12-18T15:19:31;16.07;;;6.57;;
12369;SDS011;6249;52.128;9.986;2022-12-18T15:22:52;13.37;;;6.10;;
12369;SDS011;6249;52.128;9.986;2022-12-18T15:26:17;10.27;;;4.73;;
12369;SDS011;6249;52.128;9.986;2022-12-18T15:29:41;7.53;;;4.33;;
12369;SDS011;6249;52.128;9.986;2022-12-18T15:36:50;15.10;;;4.83;;
12369;SDS011;6249;52.128;9.986;2022-12-18T15:40:14;8.97;;;4.30;;
12369;SDS011;6249;52.128;9.986;2022-12-18T15:43:37;12.87;;;5.87;;
12369;SDS011;6249;52.128;9.986;2022-12-18T15:46:58;14.33;;;6.20;;
12369;SDS011;6249;52.128;9.986;2022-12-18T15:50:20;16.07;;;6.63;;
12369;SDS011;6249;52.128;9.986;2022-12-18T15:53:41;14.73;;;6.90;;
12369;SDS011;6249;52.128;9.986;2022-12-18T15:57:07;22.10;;;8.90;;
12369;SDS011;6249;52.128;9.986;2022-12-18T16:00:44;18.30;;;7.50;;
12369;SDS011;6249;52.128;9.986;2022-12-18T16:04:05;13.87;;;7.37;;
12369;SDS011;6249;52.128;9.986;2022-12-18T16:07:28;18.50;;;8.27;;
12369;SDS011;6249;52.128;9.986;2022-12-18T16:10:48;19.97;;;9.50;;
12369;SDS011;6249;52.128;9.986;2022-12-18T16:17:46;31.73;;;12.53;;
12369;SDS011;6249;52.128;9.986;2022-12-18T16:21:09;38.40;;;13.93;;
12369;SDS011;6249;52.128;9.986;2022-12-18T16:24:31;29.03;;;11.47;;
12369;SDS011;6249;52.128;9.986;2022-12-18T16:27:53;42.27;;;13.60;;
12369;SDS011;6249;52.128;9.986;2022-12-18T16:31:19;26.43;;;12.30;;
12369;SDS011;6249;52.128;9.986;2022-12-18T16:34:42;29.13;;;11.87;;
12369;SDS011;6249;52.128;9.986;2022-12-18T16:38:03;19.53;;;7.67;;
12369;SDS011;6249;52.128;9.986;2022-12-18T16:41:26;22.13;;;7.40;;
12369;SDS011;6249;52.128;9.986;2022-12-18T16:44:53;15.20;;;7.70;;
12369;SDS011;6249;52.128;9.986;2022-12-18T16:48:14;12.80;;;6.87;;
12369;SDS011;6249;52.128;9.986;2022-12-18T16:51:34;10.27;;;4.73;;
12369;SDS011;6249;52.128;9.986;2022-12-18T16:54:55;44.93;;;15.57;;
12369;SDS011;6249;52.128;9.986;2022-12-18T16:58:18;9.03;;;4.57;;
12369;SDS011;6249;52.128;9.986;2022-12-18T17:01:39;13.20;;;5.10;;
12369;SDS011;6249;52.128;9.986;2022-12-18T17:05:02;13.33;;;5.97;;
12369;SDS011;6249;52.128;9.986;2022-12-18T17:08:23;11.20;;;4.93;;
12369;SDS011;6249;52.128;9.986;2022-12-18T17:11:45;8.53;;;4.87;;
12369;SDS011;6249;52.128;9.986;2022-12-18T17:15:11;13.97;;;4.73;;
12369;SDS011;6249;52.128;9.986;2022-12-18T17:18:32;13.23;;;5.33;;
12369;SDS011;6249;52.128;9.986;2022-12-18T17:21:53;8.13;;;4.47;;
12369;SDS011;6249;52.128;9.986;2022-12-18T17:25:16;32.17;;;11.53;;
12369;SDS011;6249;52.128;9.986;2022-12-18T17:28:37;9.20;;;4.03;;
12369;SDS011;6249;52.128;9.986;2022-12-18T17:32:01;10.87;;;3.90;;
12369;SDS011;6249;52.128;9.986;2022-12-18T17:35:22;11.40;;;3.90;;
12369;SDS011;6249;52.128;9.986;2022-12-18T17:38:54;7.40;;;3.53;;
12369;SDS011;6249;52.128;9.986;2022-12-18T17:42:18;8.63;;;3.53;;
12369;SDS011;6249;52.128;9.986;2022-12-18T17:45:39;10.83;;;4.03;;
12369;SDS011;6249;52.128;9.986;2022-12-18T17:49:00;7.60;;;3.70;;
12369;SDS011;6249;52.128;9.986;2022-12-18T17:52:22;8.60;;;4.03;;
12369;SDS011;6249;52.128;9.986;2022-12-18T17:55:42;8.47;;;4.03;;
12369;SDS011;6249;52.128;9.986;2022-12-18T17:59:05;7.03;;;3.97;;
12369;SDS011;6249;52.128;9.986;2022-12-18T18:02:26;10.47;;;5.07;;
12369;SDS011;6249;52.128;9.986;2022-12-18T18:05:49;8.83;;;4.40;;
12369;SDS011;6249;52.128;9.986;2022-12-18T18:09:16;7.40;;;3.70;;
12369;SDS011;6249;52.128;9.986;2022-12-18T18:12:39;12.13;;;4.43;;
12369;SDS011;6249;52.128;9.986;2022-12-18T18:16:18;12.50;;;4.93;;
12369;SDS011;6249;52.128;9.986;2022-12-18T18:19:41;11.40;;;5.23;;
12369;SDS011;6249;52.128;9.986;2022-12-18T18:23:01;11.17;;;4.13;;
12369;SDS011;6249;52.128;9.986;2022-12-18T18:26:22;8.60;;;4.00;;
12369;SDS011;6249;52.128;9.986;2022-12-18T18:29:42;10.13;;;4.97;;
12369;SDS011;6249;52.128;9.986;2022-12-18T18:33:03;13.20;;;5.90;;
12369;SDS011;6249;52.128;9.986;2022-12-18T18:36:26;10.33;;;4.07;;
12369;SDS011;6249;52.128;9.986;2022-12-18T18:39:46;13.10;;;5.20;;
12369;SDS011;6249;52.128;9.986;2022-12-18T18:43:07;8.20;;;4.20;;
12369;SDS011;6249;52.128;9.986;2022-12-18T18:46:28;10.90;;;4.67;;
12369;SDS011;6249;52.128;9.986;2022-12-18T18:49:49;12.40;;;4.10;;
12369;SDS011;6249;52.128;9.986;2022-12-18T18:53:10;8.97;;;4.13;;
12369;SDS011;6249;52.128;9.986;2022-12-18T18:56:33;11.17;;;5.40;;
12369;SDS011;6249;52.128;9.986;2022-12-18T18:59:54;16.60;;;6.73;;
12369;SDS011;6249;52.128;9.986;2022-12-18T19:03:14;11.50;;;5.00;;
12369;SDS011;6249;52.128;9.986;2022-12-18T19:06:39;14.77;;;6.97;;
12369;SDS011;6249;52.128;9.986;2022-12-18T19:10:01;13.87;;;5.37;;
12369;SDS011;6249;52.128;9.986;2022-12-18T19:13:25;12.13;;;4.90;;
12369;SDS011;6249;52.128;9.986;2022-12-18T19:16:48;12.67;;;5.73;;
12369;SDS011;6249;52.128;9.986;2022-12-18T19:20:09;9.03;;;4.33;;
12369;SDS011;6249;52.128;9.986;2022-12-18T19:23:32;16.10;;;5.90;;
12369;SDS011;6249;52.128;9.986;2022-12-18T19:26:55;10.83;;;4.90;;
12369;SDS011;6249;52.128;9.986;2022-12-18T19:30:16;8.37;;;4.70;;
12369;SDS011;6249;52.128;9.986;2022-12-18T19:33:37;13.50;;;5.17;;
12369;SDS011;6249;52.128;9.986;2022-12-18T19:37:00;10.80;;;4.87;;
12369;SDS011;6249;52.128;9.986;2022-12-18T19:40:21;9.10;;;4.67;;
12369;SDS011;6249;52.128;9.986;2022-12-18T19:43:41;14.53;;;4.70;;
12369;SDS011;6249;52.128;9.986;2022-12-18T19:47:03;11.20;;;5.33;;
12369;SDS011;6249;52.128;9.986;2022-12-18T19:50:25;11.83;;;4.90;;
12369;SDS011;6249;52.128;9.986;2022-12-18T19:53:46;9.93;;;4.90;;
12369;SDS011;6249;52.128;9.986;2022-12-18T19:57:07;12.93;;;6.00;;
12369;SDS011;6249;52.128;9.986;2022-12-18T20:00:32;12.70;;;5.50;;
12369;SDS011;6249;52.128;9.986;2022-12-18T20:03:55;12.43;;;5.63;;
12369;SDS011;6249;52.128;9.986;2022-12-18T20:07:17;11.30;;;5.60;;
12369;SDS011;6249;52.128;9.986;2022-12-18T20:10:40;13.80;;;5.83;;
12369;SDS011;6249;52.128;9.986;2022-12-18T20:14:08;17.10;;;7.57;;
12369;SDS011;6249;52.128;9.986;2022-12-18T20:17:29;12.30;;;6.23;;
12369;SDS011;6249;52.128;9.986;2022-12-18T20:20:50;10.67;;;5.60;;
12369;SDS011;6249;52.128;9.986;2022-12-18T20:24:10;13.80;;;5.60;;
12369;SDS011;6249;52.128;9.986;2022-12-18T20:27:33;13.67;;;6.37;;
12369;SDS011;6249;52.128;9.986;2022-12-18T20:30:57;12.10;;;5.50;;
12369;SDS011;6249;52.128;9.986;2022-12-18T20:34:19;16.00;;;6.43;;
12369;SDS011;6249;52.128;9.986;2022-12-18T20:37:45;15.83;;;6.50;;
12369;SDS011;6249;52.128;9.986;2022-12-18T20:41:08;13.00;;;6.07;;
12369;SDS011;6249;52.128;9.986;2022-12-18T20:44:35;14.13;;;5.80;;
12369;SDS011;6249;52.128;9.986;2022-12-18T20:48:00;13.53;;;6.17;;
12369;SDS011;6249;52.128;9.986;2022-12-18T20:51:21;14.73;;;6.70;;
12369;SDS011;6249;52.128;9.986;2022-12-18T20:54:41;15.53;;;6.33;;
12369;SDS011;6249;52.128;9.986;2022-12-18T20:58:02;17.47;;;7.20;;
12369;SDS011;6249;52.128;9.986;2022-12-18T21:01:23;16.50;;;7.70;;
12369;SDS011;6249;52.128;9.986;2022-12-18T21:04:46;21.60;;;6.90;;
12369;SDS011;6249;52.128;9.986;2022-12-18T21:08:09;16.57;;;7.93;;
12369;SDS011;6249;52.128;9.986;2022-12-18T21:11:30;19.40;;;7.93;;
12369;SDS011;6249;52.128;9.986;2022-12-18T21:15:12;29.03;;;13.60;;
12369;SDS011;6249;52.128;9.986;2022-12-18T21:18:33;15.50;;;7.50;;
12369;SDS011;6249;52.128;9.986;2022-12-18T21:21:56;16.40;;;6.57;;
12369;SDS011;6249;52.128;9.986;2022-12-18T21:25:17;16.67;;;7.07;;
12369;SDS011;6249;52.128;9.986;2022-12-18T21:28:40;16.27;;;6.60;;
12369;SDS011;6249;52.128;9.986;2022-12-18T21:32:01;17.73;;;7.33;;
12369;SDS011;6249;52.128;9.986;2022-12-18T21:35:25;14.57;;;6.83;;
12369;SDS011;6249;52.128;9.986;2022-12-18T21:38:45;23.80;;;7.77;;
12369;SDS011;6249;52.128;9.986;2022-12-18T21:42:07;15.23;;;7.07;;
12369;SDS011;6249;52.128;9.986;2022-12-18T21:45:48;16.17;;;6.90;;
12369;SDS011;6249;52.128;9.986;2022-12-18T21:49:15;18.23;;;7.40;;
12369;SDS011;6249;52.128;9.986;2022-12-18T21:52:37;20.07;;;8.50;;
12369;SDS011;6249;52.128;9.986;2022-12-18T21:56:00;18.83;;;7.53;;
12369;SDS011;6249;52.128;9.986;2022-12-18T21:59:22;13.77;;;6.27;;
12369;SDS011;6249;52.128;9.986;2022-12-18T22:02:59;15.40;;;6.60;;
12369;SDS011;6249;52.128;9.986;2022-12-18T22:06:21;17.50;;;7.13;;
12369;SDS011;6249;52.128;9.986;2022-12-18T22:09:45;11.10;;;5.53;;
12369;SDS011;6249;52.128;9.986;2022-12-18T22:13:06;14.77;;;7.10;;
12369;SDS011;6249;52.128;9.986;2022-12-18T22:16:26;16.70;;;7.50;;
12369;SDS011;6249;52.128;9.986;2022-12-18T22:19:50;16.37;;;7.83;;
12369;SDS011;6249;52.128;9.986;2022-12-18T22:23:10;24.30;;;8.90;;
12369;SDS011;6249;52.128;9.986;2022-12-18T22:26:35;16.60;;;7.27;;